createdAt,value
2018-07-13T00:01:48.133Z,97285.00
2018-07-13T00:04:22.035Z,97279.00
2018-07-13T00:06:52.417Z,97276.00
2018-07-13T00:09:23.177Z,97274.00
2018-07-13T00:11:53.607Z,97274.00
2018-07-13T00:14:25.241Z,97277.00
2018-07-13T00:16:56.915Z,97275.00
2018-07-13T00:19:27.638Z,97275.00
2018-07-13T00:21:57.558Z,97275.00
2018-07-13T00:24:28.021Z,97274.00
2018-07-13T00:27:00.251Z,97270.00
2018-07-13T00:29:30.674Z,97273.00
2018-07-13T00:32:01.319Z,97272.00
2018-07-13T00:34:31.791Z,97275.00
2018-07-13T00:37:02.315Z,97272.00
2018-07-13T00:39:32.608Z,97273.00
2018-07-13T00:42:03.847Z,97266.00
2018-07-13T00:44:34.616Z,97268.00
2018-07-13T00:47:05.314Z,97269.00
2018-07-13T00:49:35.920Z,97269.00
2018-07-13T00:52:06.664Z,97271.00
2018-07-13T00:54:37.789Z,97272.00
2018-07-13T00:57:08.400Z,97271.00
2018-07-13T00:59:38.767Z,97278.00
2018-07-13T01:02:09.373Z,97273.00
2018-07-13T01:04:39.780Z,97279.00
2018-07-13T01:07:10.527Z,97282.00
2018-07-13T01:09:40.925Z,97281.00
2018-07-13T01:12:11.631Z,97284.00
2018-07-13T01:14:42.172Z,97289.00
2018-07-13T01:17:12.498Z,97281.00
2018-07-13T01:19:43.311Z,97283.00
2018-07-13T01:22:13.715Z,97284.00
2018-07-13T01:24:44.220Z,97288.00
2018-07-13T01:27:14.714Z,97284.00
2018-07-13T01:29:44.900Z,97290.00
2018-07-13T01:32:15.407Z,97290.00
2018-07-13T01:34:45.871Z,97287.00
2018-07-13T01:37:16.323Z,97281.00
2018-07-13T01:40:09.029Z,97281.00
2018-07-13T01:42:39.579Z,97283.00
2018-07-13T01:45:09.970Z,97286.00
2018-07-13T01:47:40.522Z,97284.00
2018-07-13T01:50:11.275Z,97292.00
2018-07-13T01:52:41.763Z,97293.00
2018-07-13T01:55:12.554Z,97287.00
2018-07-13T01:57:43.079Z,97293.00
2018-07-13T02:00:13.762Z,97295.00
2018-07-13T02:02:44.491Z,97296.00
2018-07-13T02:05:14.907Z,97295.00
2018-07-13T02:07:45.304Z,97289.00
2018-07-13T02:10:16.003Z,97289.00
2018-07-13T02:12:46.390Z,97291.00
2018-07-13T02:15:16.927Z,97287.00
2018-07-13T02:17:47.314Z,97286.00
2018-07-13T02:20:17.718Z,97293.00
2018-07-13T02:22:48.322Z,97288.00
2018-07-13T02:25:18.635Z,97286.00
2018-07-13T02:27:49.055Z,97290.00
2018-07-13T02:30:19.489Z,97293.00
2018-07-13T02:32:49.798Z,97294.00
2018-07-13T02:35:20.261Z,97294.00
2018-07-13T02:37:50.636Z,97297.00
2018-07-13T02:40:21.057Z,97296.00
2018-07-13T02:42:51.608Z,97295.00
2018-07-13T02:45:22.101Z,97293.00
2018-07-13T02:47:52.891Z,97293.00
2018-07-13T02:50:23.425Z,97296.00
2018-07-13T02:52:54.228Z,97296.00
2018-07-13T02:55:24.563Z,97300.00
2018-07-13T02:57:54.470Z,97307.00
2018-07-13T03:00:24.895Z,97309.00
2018-07-13T03:02:55.407Z,97311.00
2018-07-13T03:05:25.852Z,97309.00
2018-07-13T03:07:56.405Z,97311.00
2018-07-13T03:10:26.838Z,97315.00
2018-07-13T03:12:57.343Z,97319.00
2018-07-13T03:15:27.832Z,97322.00
2018-07-13T03:17:58.416Z,97321.00
2018-07-13T03:20:28.526Z,97329.00
2018-07-13T03:22:59.082Z,97336.00
2018-07-13T03:25:29.715Z,97330.00
2018-07-13T03:28:00.398Z,97331.00
2018-07-13T03:30:30.784Z,97336.00
2018-07-13T03:33:01.276Z,97339.00
2018-07-13T03:35:31.670Z,97337.00
2018-07-13T03:38:02.121Z,97342.00
2018-07-13T03:40:32.691Z,97341.00
2018-07-13T03:43:03.394Z,97344.00
2018-07-13T03:45:33.947Z,97340.00
2018-07-13T03:48:04.516Z,97342.00
2018-07-13T03:50:35.074Z,97346.00
2018-07-13T03:53:05.744Z,97348.00
2018-07-13T03:55:36.237Z,97346.00
2018-07-13T03:58:06.293Z,97347.00
2018-07-13T04:00:36.776Z,97350.00
2018-07-13T04:03:07.211Z,97347.00
2018-07-13T04:05:38.126Z,97356.00
2018-07-13T04:08:08.461Z,97352.00
2018-07-13T04:10:39.009Z,97354.00
2018-07-13T04:13:09.431Z,97351.00
2018-07-13T04:15:39.874Z,97354.00
2018-07-13T04:18:16.591Z,97358.00
2018-07-13T04:20:47.086Z,97353.00
2018-07-13T04:23:17.562Z,97349.00
2018-07-13T04:25:48.169Z,97352.00
2018-07-13T04:28:19.635Z,97349.00
2018-07-13T04:30:50.835Z,97355.00
2018-07-13T04:33:21.270Z,97353.00
2018-07-13T04:35:51.679Z,97353.00
2018-07-13T04:38:22.293Z,97349.00
2018-07-13T04:40:52.807Z,97356.00
2018-07-13T04:43:23.358Z,97356.00
2018-07-13T04:45:53.838Z,97360.00
2018-07-13T04:48:24.529Z,97362.00
2018-07-13T04:50:55.164Z,97364.00
2018-07-13T04:53:25.579Z,97360.00
2018-07-13T04:55:56.157Z,97367.00
2018-07-13T04:58:33.150Z,97367.00
2018-07-13T05:01:03.781Z,97362.00
2018-07-13T05:03:34.365Z,97357.00
2018-07-13T05:06:04.757Z,97361.00
2018-07-13T05:08:35.178Z,97359.00
2018-07-13T05:11:05.851Z,97356.00
2018-07-13T05:13:36.237Z,97350.00
2018-07-13T05:16:06.854Z,97352.00
2018-07-13T05:19:00.545Z,97354.00
2018-07-13T05:21:31.079Z,97349.00
2018-07-13T05:24:01.628Z,97345.00
2018-07-13T05:26:32.295Z,97347.00
2018-07-13T05:29:25.121Z,97346.00
2018-07-13T05:31:55.514Z,97345.00
2018-07-13T05:34:26.112Z,97352.00
2018-07-13T05:36:56.668Z,97348.00
2018-07-13T05:39:27.060Z,97349.00
2018-07-13T05:41:57.481Z,97348.00
2018-07-13T05:44:27.681Z,97343.00
2018-07-13T05:46:58.267Z,97339.00
2018-07-13T05:49:28.570Z,97341.00
2018-07-13T05:51:59.090Z,97337.00
2018-07-13T05:54:29.623Z,97336.00
2018-07-13T05:56:59.969Z,97337.00
2018-07-13T05:59:30.413Z,97332.00
2018-07-13T06:02:00.789Z,97332.00
2018-07-13T06:04:31.343Z,97340.00
2018-07-13T06:07:01.667Z,97346.00
2018-07-13T06:09:42.165Z,97336.00
2018-07-13T06:12:12.441Z,97337.00
2018-07-13T06:14:43.164Z,97341.00
2018-07-13T06:17:13.249Z,97347.00
2018-07-13T06:19:43.545Z,97347.00
2018-07-13T06:22:13.389Z,97350.00
2018-07-13T06:24:43.394Z,97348.00
2018-07-13T06:27:13.782Z,97353.00
2018-07-13T06:29:44.283Z,97349.00
2018-07-13T06:32:14.625Z,97355.00
2018-07-13T06:34:45.249Z,97354.00
2018-07-13T06:37:15.716Z,97359.00
2018-07-13T06:39:46.750Z,97355.00
2018-07-13T06:42:17.762Z,97362.00
2018-07-13T06:44:48.719Z,97366.00
2018-07-13T06:47:19.823Z,97365.00
2018-07-13T06:49:50.447Z,97364.00
2018-07-13T06:52:21.089Z,97365.00
2018-07-13T06:54:52.012Z,97367.00
2018-07-13T06:57:39.062Z,97362.00
2018-07-13T07:01:21.860Z,97364.00
2018-07-13T07:04:26.339Z,97370.00
2018-07-13T07:06:57.513Z,97369.00
2018-07-13T07:09:29.063Z,97366.00
2018-07-13T07:12:53.061Z,97363.00
2018-07-13T07:15:24.519Z,97367.00
2018-07-13T07:17:55.603Z,97360.00
2018-07-13T07:20:26.127Z,97361.00
2018-07-13T07:22:56.554Z,97362.00
2018-07-13T07:25:27.081Z,97363.00
2018-07-13T07:27:57.583Z,97366.00
2018-07-13T07:30:28.015Z,97361.00
2018-07-13T07:32:58.586Z,97360.00
2018-07-13T07:35:29.059Z,97360.00
2018-07-13T07:38:10.199Z,97359.00
2018-07-13T07:40:41.134Z,97360.00
2018-07-13T07:43:11.668Z,97361.00
2018-07-13T07:45:42.241Z,97363.00
2018-07-13T07:48:13.016Z,97356.00
2018-07-13T07:50:43.107Z,97355.00
2018-07-13T07:53:13.692Z,97354.00
2018-07-13T07:55:44.282Z,97354.00
2018-07-13T07:58:15.760Z,97357.00
2018-07-13T08:00:46.273Z,97358.00
2018-07-13T08:03:17.149Z,97359.00
2018-07-13T08:05:47.828Z,97357.00
2018-07-13T08:08:18.644Z,97347.00
2018-07-13T08:10:49.749Z,97345.00
2018-07-13T08:13:20.432Z,97346.00
2018-07-13T08:15:51.416Z,97346.00
2018-07-13T08:18:21.737Z,97340.00
2018-07-13T08:20:52.391Z,97341.00
2018-07-13T08:23:23.528Z,97345.00
2018-07-13T08:25:54.515Z,97344.00
2018-07-13T08:28:25.940Z,97338.00
2018-07-13T08:30:59.904Z,97334.00
2018-07-13T08:33:30.597Z,97336.00
2018-07-13T08:36:01.417Z,97334.00
2018-07-13T08:38:31.919Z,97335.00
2018-07-13T08:41:02.632Z,97341.00
2018-07-13T08:43:33.797Z,97340.00
2018-07-13T08:46:04.971Z,97340.00
2018-07-13T08:48:35.823Z,97336.00
2018-07-13T08:51:06.921Z,97334.00
2018-07-13T08:53:38.107Z,97336.00
2018-07-13T08:56:09.026Z,97336.00
2018-07-13T08:58:40.089Z,97333.00
2018-07-13T09:01:11.085Z,97339.00
2018-07-13T09:03:41.719Z,97333.00
2018-07-13T09:06:13.468Z,97334.00
2018-07-13T09:08:44.483Z,97345.00
2018-07-13T09:11:15.489Z,97343.00
2018-07-13T09:13:46.495Z,97341.00
2018-07-13T09:16:17.532Z,97336.00
2018-07-13T09:18:47.654Z,97349.00
2018-07-13T09:21:18.184Z,97343.00
2018-07-13T09:23:49.091Z,97339.00
2018-07-13T09:26:19.791Z,97344.00
2018-07-13T09:28:51.199Z,97342.00
2018-07-13T09:31:21.978Z,97342.00
2018-07-13T09:33:52.823Z,97340.00
2018-07-13T09:36:24.124Z,97340.00
2018-07-13T09:38:54.783Z,97346.00
2018-07-13T09:41:25.328Z,97337.00
2018-07-13T09:43:56.263Z,97339.00
2018-07-13T09:46:27.352Z,97336.00
2018-07-13T09:48:58.686Z,97337.00
2018-07-13T09:51:29.713Z,97348.00
2018-07-13T09:54:00.901Z,97341.00
2018-07-13T09:56:31.334Z,97343.00
2018-07-13T09:59:02.350Z,97338.00
2018-07-13T10:01:33.335Z,97343.00
2018-07-13T10:04:04.035Z,97340.00
2018-07-13T10:06:35.056Z,97349.00
2018-07-13T10:09:07.858Z,97341.00
2018-07-13T10:11:38.415Z,97345.00
2018-07-13T10:14:09.129Z,97339.00
2018-07-13T10:16:40.293Z,97336.00
2018-07-13T10:19:11.051Z,97333.00
2018-07-13T10:21:44.844Z,97329.00
2018-07-13T10:24:18.131Z,97336.00
2018-07-13T10:26:49.120Z,97331.00
2018-07-13T10:32:24.046Z,97325.00
2018-07-13T10:34:55.910Z,97331.00
2018-07-13T10:37:30.574Z,97330.00
2018-07-13T10:40:01.568Z,97328.00
2018-07-13T10:42:32.230Z,97331.00
2018-07-13T10:45:03.208Z,97329.00
2018-07-13T10:47:34.648Z,97331.00
2018-07-13T10:50:05.686Z,97327.00
2018-07-13T10:52:36.629Z,97322.00
2018-07-13T10:55:07.610Z,97321.00
2018-07-13T10:57:38.644Z,97320.00
2018-07-13T11:00:09.652Z,97322.00
2018-07-13T11:02:40.306Z,97328.00
2018-07-13T11:05:11.254Z,97322.00
2018-07-13T11:07:42.065Z,97318.00
2018-07-13T11:10:13.071Z,97327.00
2018-07-13T11:12:44.002Z,97316.00
2018-07-13T11:15:14.731Z,97314.00
2018-07-13T11:17:45.790Z,97312.00
2018-07-13T11:23:23.883Z,97314.00
2018-07-13T11:25:54.833Z,97310.00
2018-07-13T11:28:25.444Z,97311.00
2018-07-13T11:30:56.457Z,97310.00
2018-07-13T11:33:27.478Z,97307.00
2018-07-13T11:35:58.392Z,97304.00
2018-07-13T11:38:29.155Z,97293.00
2018-07-13T11:41:00.219Z,97297.00
2018-07-13T11:43:31.371Z,97299.00
2018-07-13T11:46:02.212Z,97296.00
2018-07-13T11:48:33.247Z,97295.00
2018-07-13T11:51:04.281Z,97299.00
2018-07-13T11:53:34.971Z,97293.00
2018-07-13T11:56:12.298Z,97287.00
2018-07-13T11:58:43.227Z,97285.00
2018-07-13T12:01:14.316Z,97285.00
2018-07-13T12:03:45.016Z,97284.00
2018-07-13T12:06:22.339Z,97288.00
2018-07-13T12:08:52.974Z,97287.00
2018-07-13T12:11:23.827Z,97284.00
2018-07-13T12:13:54.481Z,97279.00
2018-07-13T12:16:25.385Z,97276.00
2018-07-13T12:18:56.377Z,97268.00
2018-07-13T12:21:27.403Z,97265.00
2018-07-13T12:23:58.356Z,97265.00
2018-07-13T12:26:31.394Z,97259.00
2018-07-13T12:29:02.459Z,97260.00
2018-07-13T12:31:37.703Z,97254.00
2018-07-13T12:34:08.745Z,97246.00
2018-07-13T12:36:39.254Z,97249.00
2018-07-13T12:39:09.185Z,97245.00
2018-07-13T12:41:40.103Z,97249.00
2018-07-13T12:44:12.723Z,97243.00
2018-07-13T12:46:43.166Z,97242.00
2018-07-13T12:49:14.316Z,97240.00
2018-07-13T12:51:45.052Z,97237.00
2018-07-13T12:54:15.694Z,97234.00
2018-07-13T12:56:46.643Z,97236.00
2018-07-13T12:59:17.157Z,97236.00
2018-07-13T13:01:47.924Z,97228.00
2018-07-13T13:04:19.241Z,97229.00
2018-07-13T13:06:53.259Z,97228.00
2018-07-13T13:09:23.956Z,97230.00
2018-07-13T13:11:54.918Z,97232.00
2018-07-13T13:14:25.968Z,97224.00
2018-07-13T13:16:57.150Z,97229.00
2018-07-13T13:19:27.865Z,97222.00
2018-07-13T13:21:58.506Z,97220.00
2018-07-13T13:24:29.328Z,97219.00
2018-07-13T13:26:59.960Z,97217.00
2018-07-13T13:29:30.947Z,97218.00
2018-07-13T13:32:02.344Z,97217.00
2018-07-13T13:34:33.357Z,97211.00
2018-07-13T13:37:04.043Z,97215.00
2018-07-13T13:39:35.068Z,97210.00
2018-07-13T13:42:06.895Z,97215.00
2018-07-13T13:44:38.515Z,97216.00
2018-07-13T13:47:11.584Z,97208.00
2018-07-13T13:49:43.452Z,97216.00
2018-07-13T13:52:14.322Z,97212.00
2018-07-13T13:54:45.487Z,97217.00
2018-07-13T13:57:16.341Z,97217.00
2018-07-13T13:59:50.040Z,97219.00
2018-07-13T14:02:21.404Z,97216.00
2018-07-13T14:04:52.270Z,97212.00
2018-07-13T14:07:23.483Z,97213.00
2018-07-13T14:09:54.207Z,97215.00
2018-07-13T14:12:25.606Z,97212.00
2018-07-13T14:14:56.437Z,97206.00
2018-07-13T14:17:28.635Z,97203.00
2018-07-13T14:19:59.985Z,97205.00
2018-07-13T14:22:30.981Z,97200.00
2018-07-13T14:25:02.006Z,97196.00
2018-07-13T14:27:32.657Z,97203.00
2018-07-13T14:30:03.206Z,97194.00
2018-07-13T14:32:33.713Z,97194.00
2018-07-13T14:35:04.378Z,97186.00
2018-07-13T14:37:34.980Z,97182.00
2018-07-13T14:40:06.826Z,97177.00
2018-07-13T14:42:38.716Z,97181.00
2018-07-13T14:45:10.246Z,97175.00
2018-07-13T14:47:42.283Z,97175.00
2018-07-13T14:50:13.788Z,97179.00
2018-07-13T14:52:45.182Z,97178.00
2018-07-13T14:55:15.681Z,97169.00
2018-07-13T14:57:47.599Z,97169.00
2018-07-13T15:00:19.762Z,97168.00
2018-07-13T15:02:50.847Z,97164.00
2018-07-13T15:05:26.831Z,97162.00
2018-07-13T15:07:57.469Z,97160.00
2018-07-13T15:10:28.510Z,97170.00
2018-07-13T15:13:00.232Z,97156.00
2018-07-13T15:15:31.297Z,97156.00
2018-07-13T15:18:01.913Z,97153.00
2018-07-13T15:20:32.931Z,97148.00
2018-07-13T15:23:03.908Z,97153.00
2018-07-13T15:25:34.460Z,97151.00
2018-07-13T15:28:04.932Z,97152.00
2018-07-13T15:30:37.968Z,97151.00
2018-07-13T15:33:08.620Z,97151.00
2018-07-13T15:35:39.509Z,97148.00
2018-07-13T15:38:10.033Z,97147.00
2018-07-13T15:40:41.357Z,97158.00
2018-07-13T15:43:12.424Z,97159.00
2018-07-13T15:45:43.367Z,97153.00
2018-07-13T15:48:14.070Z,97155.00
2018-07-13T15:50:45.396Z,97148.00
2018-07-13T15:53:16.121Z,97151.00
2018-07-13T15:55:51.523Z,97146.00
2018-07-13T15:58:22.440Z,97141.00
2018-07-13T16:00:53.614Z,97143.00
2018-07-13T16:03:24.508Z,97142.00
2018-07-13T16:05:55.475Z,97138.00
2018-07-13T16:08:26.111Z,97143.00
2018-07-13T16:10:57.503Z,97143.00
2018-07-13T16:13:28.187Z,97137.00
2018-07-13T16:15:59.175Z,97143.00
2018-07-13T16:18:29.784Z,97141.00
2018-07-13T16:21:00.733Z,97137.00
2018-07-13T16:23:31.768Z,97144.00
2018-07-13T16:26:02.755Z,97133.00
2018-07-13T16:28:33.571Z,97135.00
2018-07-13T16:31:04.618Z,97131.00
2018-07-13T16:33:35.260Z,97128.00
2018-07-13T16:36:06.231Z,97121.00
2018-07-13T16:38:36.854Z,97118.00
2018-07-13T16:41:07.791Z,97125.00
2018-07-13T16:43:38.338Z,97119.00
2018-07-13T16:46:09.219Z,97117.00
2018-07-13T16:48:40.163Z,97116.00
2018-07-13T16:51:11.259Z,97113.00
2018-07-13T16:53:42.273Z,97108.00
2018-07-13T16:56:13.266Z,97104.00
2018-07-13T16:58:43.993Z,97102.00
2018-07-13T17:01:15.248Z,97097.00
2018-07-13T17:03:46.023Z,97096.00
2018-07-13T17:06:17.253Z,97096.00
2018-07-13T17:08:48.085Z,97094.00
2018-07-13T17:11:19.306Z,97093.00
2018-07-13T17:13:50.308Z,97096.00
2018-07-13T17:16:21.137Z,97097.00
2018-07-13T17:18:52.112Z,97097.00
2018-07-13T17:21:23.100Z,97107.00
2018-07-13T17:23:54.152Z,97107.00
2018-07-13T17:26:25.447Z,97104.00
2018-07-13T17:28:56.211Z,97105.00
2018-07-13T17:31:27.216Z,97111.00
2018-07-13T17:33:58.096Z,97105.00
2018-07-13T17:36:28.962Z,97110.00
2018-07-13T17:38:59.980Z,97110.00
2018-07-13T17:41:30.729Z,97116.00
2018-07-13T17:44:02.001Z,97112.00
2018-07-13T17:46:33.008Z,97116.00
2018-07-13T17:49:04.024Z,97112.00
2018-07-13T17:51:35.193Z,97118.00
2018-07-13T17:54:06.158Z,97116.00
2018-07-13T17:56:36.694Z,97114.00
2018-07-13T17:59:08.050Z,97117.00
2018-07-13T18:01:39.006Z,97110.00
2018-07-13T18:04:09.705Z,97112.00
2018-07-13T18:06:40.782Z,97115.00
2018-07-13T18:09:11.788Z,97122.00
2018-07-13T18:11:43.115Z,97125.00
2018-07-13T18:14:13.796Z,97116.00
2018-07-13T18:16:44.759Z,97118.00
2018-07-13T18:19:15.399Z,97124.00
2018-07-13T18:21:46.640Z,97120.00
2018-07-13T18:24:17.861Z,97124.00
2018-07-13T18:26:49.197Z,97121.00
2018-07-13T18:29:19.918Z,97120.00
2018-07-13T18:31:50.871Z,97113.00
2018-07-13T18:34:21.850Z,97114.00
2018-07-13T18:36:52.553Z,97115.00
2018-07-13T18:39:23.739Z,97120.00
2018-07-13T18:41:54.521Z,97116.00
2018-07-13T18:44:25.491Z,97117.00
2018-07-13T18:46:56.304Z,97125.00
2018-07-13T18:49:27.045Z,97120.00
2018-07-13T18:51:57.572Z,97116.00
2018-07-13T18:54:28.672Z,97122.00
2018-07-13T18:57:00.366Z,97122.00
2018-07-13T18:59:31.020Z,97125.00
2018-07-13T19:02:02.026Z,97124.00
2018-07-13T19:04:33.092Z,97129.00
2018-07-13T19:07:04.120Z,97128.00
2018-07-13T19:09:35.065Z,97124.00
2018-07-13T19:12:05.900Z,97127.00
2018-07-13T19:14:36.734Z,97130.00
2018-07-13T19:17:07.942Z,97132.00
2018-07-13T19:19:39.079Z,97136.00
2018-07-13T19:22:09.395Z,97137.00
2018-07-13T19:24:40.131Z,97148.00
2018-07-13T19:27:10.728Z,97150.00
2018-07-13T19:29:41.791Z,97159.00
2018-07-13T19:32:12.678Z,97162.00
2018-07-13T19:34:43.509Z,97164.00
2018-07-13T19:37:14.626Z,97163.00
2018-07-13T19:39:45.546Z,97169.00
2018-07-13T19:42:16.583Z,97172.00
2018-07-13T19:44:47.255Z,97175.00
2018-07-13T19:47:18.209Z,97181.00
2018-07-13T19:49:48.863Z,97185.00
2018-07-13T19:52:19.928Z,97179.00
2018-07-13T19:54:50.802Z,97182.00
2018-07-13T19:57:21.858Z,97192.00
2018-07-13T19:59:52.707Z,97190.00
2018-07-13T20:02:23.670Z,97186.00
2018-07-13T20:04:54.363Z,97192.00
2018-07-13T20:07:25.234Z,97198.00
2018-07-13T20:09:56.719Z,97191.00
2018-07-13T20:12:27.709Z,97196.00
2018-07-13T20:14:58.363Z,97199.00
2018-07-13T20:17:30.913Z,97200.00
2018-07-13T20:20:01.727Z,97201.00
2018-07-13T20:22:32.768Z,97206.00
2018-07-13T20:25:03.436Z,97209.00
2018-07-13T20:27:34.431Z,97208.00
2018-07-13T20:30:08.960Z,97209.00
2018-07-13T20:32:40.008Z,97210.00
2018-07-13T20:35:11.065Z,97211.00
2018-07-13T20:37:41.996Z,97216.00
2018-07-13T20:40:12.942Z,97209.00
2018-07-13T20:42:43.891Z,97215.00
2018-07-13T20:45:14.515Z,97218.00
2018-07-13T20:47:45.588Z,97213.00
2018-07-13T20:50:16.320Z,97213.00
2018-07-13T20:52:49.490Z,97216.00
2018-07-13T20:55:19.452Z,97217.00
2018-07-13T20:57:50.908Z,97221.00
2018-07-13T21:00:21.850Z,97220.00
2018-07-13T21:02:52.676Z,97222.00
2018-07-13T21:05:23.594Z,97224.00
2018-07-13T21:07:54.603Z,97227.00
2018-07-13T21:10:25.472Z,97226.00
2018-07-13T21:12:56.152Z,97230.00
2018-07-13T21:15:26.645Z,97224.00
2018-07-13T21:17:57.714Z,97226.00
2018-07-13T21:20:28.672Z,97223.00
2018-07-13T21:23:00.140Z,97230.00
2018-07-13T21:25:31.027Z,97228.00
2018-07-13T21:28:02.117Z,97227.00
2018-07-13T21:30:33.243Z,97232.00
2018-07-13T21:33:04.286Z,97232.00
2018-07-13T21:35:35.260Z,97229.00
2018-07-13T21:38:06.029Z,97224.00
2018-07-13T21:40:37.099Z,97226.00
2018-07-13T21:43:08.193Z,97226.00
2018-07-13T21:45:39.125Z,97224.00
2018-07-13T21:48:13.059Z,97221.00
2018-07-13T21:50:52.526Z,97223.00
2018-07-13T21:53:29.749Z,97220.00
2018-07-13T21:56:01.135Z,97220.00
2018-07-13T21:58:43.849Z,97223.00
2018-07-13T22:01:26.124Z,97219.00
2018-07-13T22:03:57.211Z,97217.00
2018-07-13T22:06:28.236Z,97220.00
2018-07-13T22:08:59.718Z,97223.00
2018-07-13T22:11:30.944Z,97219.00
2018-07-13T22:14:11.824Z,97213.00
2018-07-13T22:16:42.968Z,97214.00
2018-07-13T22:19:14.748Z,97214.00
2018-07-13T22:21:47.459Z,97218.00
2018-07-13T22:24:18.977Z,97220.00
2018-07-13T22:26:49.588Z,97214.00
2018-07-13T22:29:25.480Z,97215.00
2018-07-13T22:32:14.456Z,97218.00
2018-07-13T22:35:00.376Z,97217.00
2018-07-13T22:37:31.444Z,97213.00
2018-07-13T22:40:04.522Z,97210.00
2018-07-13T22:42:39.374Z,97215.00
2018-07-13T22:45:11.603Z,97210.00
2018-07-13T22:47:44.362Z,97219.00
2018-07-13T22:50:18.162Z,97219.00
2018-07-13T22:52:50.508Z,97223.00
2018-07-13T22:55:23.537Z,97228.00
2018-07-13T23:00:39.204Z,97222.00
2018-07-13T23:03:14.688Z,97221.00
2018-07-13T23:05:47.189Z,97221.00
2018-07-13T23:08:20.808Z,97216.00
2018-07-13T23:10:55.789Z,97214.00
2018-07-13T23:13:37.887Z,97208.00
2018-07-13T23:16:29.477Z,97213.00
2018-07-13T23:19:06.014Z,97206.00
2018-07-13T23:21:37.576Z,97204.00
2018-07-13T23:24:09.575Z,97204.00
2018-07-13T23:26:40.602Z,97209.00
2018-07-13T23:29:16.911Z,97212.00
2018-07-13T23:31:48.628Z,97215.00
2018-07-13T23:34:19.864Z,97215.00
2018-07-13T23:36:50.847Z,97227.00
2018-07-13T23:39:22.116Z,97241.00
2018-07-13T23:41:57.682Z,97250.00
2018-07-13T23:44:28.848Z,97266.00
2018-07-13T23:47:03.682Z,97283.00
2018-07-13T23:49:35.219Z,97290.00
2018-07-13T23:52:10.899Z,97304.00
2018-07-13T23:54:42.247Z,97318.00
2018-07-13T23:57:13.362Z,97318.00
2018-07-13T23:59:44.404Z,97316.00
